sensor_id;sensor_type;location;lat;lon;timestamp;temperature;humidity
9998;DHT22;5038;53.064;8.624;2022-07-01T00:02:26;20.70;99.90
9998;DHT22;5038;53.064;8.624;2022-07-01T00:04:54;20.70;99.90
9998;DHT22;5038;53.064;8.624;2022-07-01T00:07:41;20.60;99.90
9998;DHT22;5038;53.064;8.624;2022-07-01T00:10:09;20.60;99.90
9998;DHT22;5038;53.064;8.624;2022-07-01T00:12:39;20.60;99.90
9998;DHT22;5038;53.064;8.624;2022-07-01T00:15:08;20.60;99.90
9998;DHT22;5038;53.064;8.624;2022-07-01T00:17:37;20.60;99.90
9998;DHT22;5038;53.064;8.624;2022-07-01T00:20:07;20.60;99.90
9998;DHT22;5038;53.064;8.624;2022-07-01T00:22:36;20.50;99.90
9998;DHT22;5038;53.064;8.624;2022-07-01T00:25:05;20.50;99.90
9998;DHT22;5038;53.064;8.624;2022-07-01T00:27:37;20.50;99.90
9998;DHT22;5038;53.064;8.624;2022-07-01T00:30:07;20.40;99.90
9998;DHT22;5038;53.064;8.624;2022-07-01T00:32:36;20.40;99.90
9998;DHT22;5038;53.064;8.624;2022-07-01T00:35:05;20.30;99.90
9998;DHT22;5038;53.064;8.624;2022-07-01T00:37:34;20.30;99.90
9998;DHT22;5038;53.064;8.624;2022-07-01T00:40:03;20.20;99.90
9998;DHT22;5038;53.064;8.624;2022-07-01T00:42:31;20.20;99.90
9998;DHT22;5038;53.064;8.624;2022-07-01T00:44:59;20.20;99.90
9998;DHT22;5038;53.064;8.624;2022-07-01T00:47:29;20.10;99.90
9998;DHT22;5038;53.064;8.624;2022-07-01T00:49:58;20.10;99.90
9998;DHT22;5038;53.064;8.624;2022-07-01T00:52:26;20.00;99.90
9998;DHT22;5038;53.064;8.624;2022-07-01T00:54:57;20.00;99.90
9998;DHT22;5038;53.064;8.624;2022-07-01T00:57:30;19.90;99.90
9998;DHT22;5038;53.064;8.624;2022-07-01T00:59:58;19.90;99.90
9998;DHT22;5038;53.064;8.624;2022-07-01T01:02:26;19.90;99.90
9998;DHT22;5038;53.064;8.624;2022-07-01T01:04:56;19.80;99.90
9998;DHT22;5038;53.064;8.624;2022-07-01T01:07:25;19.80;99.90
9998;DHT22;5038;53.064;8.624;2022-07-01T01:09:53;19.70;99.90
9998;DHT22;5038;53.064;8.624;2022-07-01T01:12:21;19.70;99.90
9998;DHT22;5038;53.064;8.624;2022-07-01T01:14:50;19.60;99.90
9998;DHT22;5038;53.064;8.624;2022-07-01T01:17:19;19.60;99.90
9998;DHT22;5038;53.064;8.624;2022-07-01T01:19:49;19.50;99.90
9998;DHT22;5038;53.064;8.624;2022-07-01T01:22:19;19.50;99.90
9998;DHT22;5038;53.064;8.624;2022-07-01T01:24:48;19.50;99.90
9998;DHT22;5038;53.064;8.624;2022-07-01T01:27:17;19.40;99.90
9998;DHT22;5038;53.064;8.624;2022-07-01T01:29:45;19.30;99.90
9998;DHT22;5038;53.064;8.624;2022-07-01T01:32:13;19.30;99.90
9998;DHT22;5038;53.064;8.624;2022-07-01T01:34:41;19.20;99.90
9998;DHT22;5038;53.064;8.624;2022-07-01T01:37:10;19.10;99.90
9998;DHT22;5038;53.064;8.624;2022-07-01T01:39:39;19.10;99.90
9998;DHT22;5038;53.064;8.624;2022-07-01T01:42:08;19.00;99.90
9998;DHT22;5038;53.064;8.624;2022-07-01T01:44:36;19.00;99.90
9998;DHT22;5038;53.064;8.624;2022-07-01T01:47:05;18.80;99.90
9998;DHT22;5038;53.064;8.624;2022-07-01T01:49:34;18.70;99.90
9998;DHT22;5038;53.064;8.624;2022-07-01T01:52:02;18.60;99.90
9998;DHT22;5038;53.064;8.624;2022-07-01T01:54:31;18.50;99.90
9998;DHT22;5038;53.064;8.624;2022-07-01T01:57:01;18.40;99.90
9998;DHT22;5038;53.064;8.624;2022-07-01T01:59:29;18.30;99.90
9998;DHT22;5038;53.064;8.624;2022-07-01T02:01:57;18.30;99.90
9998;DHT22;5038;53.064;8.624;2022-07-01T02:04:26;18.20;99.90
9998;DHT22;5038;53.064;8.624;2022-07-01T02:06:54;18.20;99.90
9998;DHT22;5038;53.064;8.624;2022-07-01T02:09:22;18.10;99.90
9998;DHT22;5038;53.064;8.624;2022-07-01T02:11:51;18.10;99.90
9998;DHT22;5038;53.064;8.624;2022-07-01T02:14:21;18.00;99.90
9998;DHT22;5038;53.064;8.624;2022-07-01T02:16:49;17.90;99.90
9998;DHT22;5038;53.064;8.624;2022-07-01T02:19:17;17.90;99.90
9998;DHT22;5038;53.064;8.624;2022-07-01T02:21:45;17.80;99.90
9998;DHT22;5038;53.064;8.624;2022-07-01T02:24:13;17.80;99.90
9998;DHT22;5038;53.064;8.624;2022-07-01T02:26:42;17.80;99.90
9998;DHT22;5038;53.064;8.624;2022-07-01T02:29:11;17.70;99.90
9998;DHT22;5038;53.064;8.624;2022-07-01T02:31:40;17.70;99.90
9998;DHT22;5038;53.064;8.624;2022-07-01T02:34:12;17.70;99.90
9998;DHT22;5038;53.064;8.624;2022-07-01T02:36:40;17.70;99.90
9998;DHT22;5038;53.064;8.624;2022-07-01T02:39:09;17.70;99.90
9998;DHT22;5038;53.064;8.624;2022-07-01T02:41:37;17.70;99.90
9998;DHT22;5038;53.064;8.624;2022-07-01T02:44:19;17.60;99.90
9998;DHT22;5038;53.064;8.624;2022-07-01T02:46:48;17.60;99.90
9998;DHT22;5038;53.064;8.624;2022-07-01T02:49:17;17.60;99.90
9998;DHT22;5038;53.064;8.624;2022-07-01T02:51:45;17.50;99.90
9998;DHT22;5038;53.064;8.624;2022-07-01T02:54:13;17.50;99.90
9998;DHT22;5038;53.064;8.624;2022-07-01T02:56:41;17.40;99.90
9998;DHT22;5038;53.064;8.624;2022-07-01T02:59:10;17.50;99.90
9998;DHT22;5038;53.064;8.624;2022-07-01T03:01:38;17.40;99.90
9998;DHT22;5038;53.064;8.624;2022-07-01T03:04:08;17.40;99.90
9998;DHT22;5038;53.064;8.624;2022-07-01T03:06:37;17.40;99.90
9998;DHT22;5038;53.064;8.624;2022-07-01T03:09:05;17.40;99.90
9998;DHT22;5038;53.064;8.624;2022-07-01T03:11:33;17.40;99.90
9998;DHT22;5038;53.064;8.624;2022-07-01T03:14:01;17.40;99.90
9998;DHT22;5038;53.064;8.624;2022-07-01T03:16:30;17.40;99.90
9998;DHT22;5038;53.064;8.624;2022-07-01T03:18:58;17.50;99.90
9998;DHT22;5038;53.064;8.624;2022-07-01T03:21:29;17.50;99.90
9998;DHT22;5038;53.064;8.624;2022-07-01T03:23:58;17.40;99.90
9998;DHT22;5038;53.064;8.624;2022-07-01T03:26:26;17.50;99.90
9998;DHT22;5038;53.064;8.624;2022-07-01T03:28:54;17.40;99.90
9998;DHT22;5038;53.064;8.624;2022-07-01T03:31:22;17.50;99.90
9998;DHT22;5038;53.064;8.624;2022-07-01T03:33:51;17.40;99.90
9998;DHT22;5038;53.064;8.624;2022-07-01T03:36:19;17.40;99.90
9998;DHT22;5038;53.064;8.624;2022-07-01T03:38:48;17.40;99.90
9998;DHT22;5038;53.064;8.624;2022-07-01T03:41:17;17.40;99.90
9998;DHT22;5038;53.064;8.624;2022-07-01T03:43:45;17.30;99.90
9998;DHT22;5038;53.064;8.624;2022-07-01T03:46:13;17.30;99.90
9998;DHT22;5038;53.064;8.624;2022-07-01T03:48:41;17.30;99.90
9998;DHT22;5038;53.064;8.624;2022-07-01T03:51:09;17.20;99.90
9998;DHT22;5038;53.064;8.624;2022-07-01T03:53:37;17.20;99.90
9998;DHT22;5038;53.064;8.624;2022-07-01T03:56:24;17.30;99.90
9998;DHT22;5038;53.064;8.624;2022-07-01T03:58:53;17.30;99.90
9998;DHT22;5038;53.064;8.624;2022-07-01T04:01:21;17.20;99.90
9998;DHT22;5038;53.064;8.624;2022-07-01T04:03:49;17.20;99.90
9998;DHT22;5038;53.064;8.624;2022-07-01T04:06:17;17.20;99.90
9998;DHT22;5038;53.064;8.624;2022-07-01T04:08:46;17.20;99.90
9998;DHT22;5038;53.064;8.624;2022-07-01T04:11:15;17.10;99.90
9998;DHT22;5038;53.064;8.624;2022-07-01T04:13:46;17.10;99.90
9998;DHT22;5038;53.064;8.624;2022-07-01T04:16:17;17.10;99.90
9998;DHT22;5038;53.064;8.624;2022-07-01T04:18:45;17.10;99.90
9998;DHT22;5038;53.064;8.624;2022-07-01T04:21:14;17.10;99.90
9998;DHT22;5038;53.064;8.624;2022-07-01T04:24:04;17.00;99.90
9998;DHT22;5038;53.064;8.624;2022-07-01T04:26:33;17.00;99.90
9998;DHT22;5038;53.064;8.624;2022-07-01T04:29:05;17.00;99.90
9998;DHT22;5038;53.064;8.624;2022-07-01T04:31:34;17.00;99.90
9998;DHT22;5038;53.064;8.624;2022-07-01T04:34:03;17.00;99.90
9998;DHT22;5038;53.064;8.624;2022-07-01T04:36:31;17.00;99.90
9998;DHT22;5038;53.064;8.624;2022-07-01T04:39:00;17.00;99.90
9998;DHT22;5038;53.064;8.624;2022-07-01T04:41:28;17.00;99.90
9998;DHT22;5038;53.064;8.624;2022-07-01T04:44:16;17.00;99.90
9998;DHT22;5038;53.064;8.624;2022-07-01T04:46:44;17.00;99.90
9998;DHT22;5038;53.064;8.624;2022-07-01T04:49:13;16.90;99.90
9998;DHT22;5038;53.064;8.624;2022-07-01T04:51:41;16.90;99.90
9998;DHT22;5038;53.064;8.624;2022-07-01T04:54:10;16.90;99.90
9998;DHT22;5038;53.064;8.624;2022-07-01T04:56:38;16.90;99.90
9998;DHT22;5038;53.064;8.624;2022-07-01T04:59:10;16.90;99.90
9998;DHT22;5038;53.064;8.624;2022-07-01T05:01:40;16.80;99.90
9998;DHT22;5038;53.064;8.624;2022-07-01T05:04:09;16.80;99.90
9998;DHT22;5038;53.064;8.624;2022-07-01T05:06:38;16.80;99.90
9998;DHT22;5038;53.064;8.624;2022-07-01T05:09:06;16.80;99.90
9998;DHT22;5038;53.064;8.624;2022-07-01T05:11:35;16.80;99.90
9998;DHT22;5038;53.064;8.624;2022-07-01T05:14:03;16.80;99.90
9998;DHT22;5038;53.064;8.624;2022-07-01T05:16:31;16.80;99.90
9998;DHT22;5038;53.064;8.624;2022-07-01T05:19:01;16.80;99.90
9998;DHT22;5038;53.064;8.624;2022-07-01T05:21:47;16.80;99.90
9998;DHT22;5038;53.064;8.624;2022-07-01T05:24:27;16.80;99.90
9998;DHT22;5038;53.064;8.624;2022-07-01T05:26:58;16.80;99.90
9998;DHT22;5038;53.064;8.624;2022-07-01T05:29:27;16.80;99.90
9998;DHT22;5038;53.064;8.624;2022-07-01T05:31:55;16.80;99.90
9998;DHT22;5038;53.064;8.624;2022-07-01T05:34:25;16.80;99.90
9998;DHT22;5038;53.064;8.624;2022-07-01T05:36:54;16.80;99.90
9998;DHT22;5038;53.064;8.624;2022-07-01T05:39:22;16.80;99.90
9998;DHT22;5038;53.064;8.624;2022-07-01T05:41:50;16.90;99.90
9998;DHT22;5038;53.064;8.624;2022-07-01T05:44:19;16.90;99.90
9998;DHT22;5038;53.064;8.624;2022-07-01T05:46:48;16.90;99.90
9998;DHT22;5038;53.064;8.624;2022-07-01T05:49:16;16.90;99.90
9998;DHT22;5038;53.064;8.624;2022-07-01T05:51:46;16.90;99.90
9998;DHT22;5038;53.064;8.624;2022-07-01T05:54:14;16.90;99.90
9998;DHT22;5038;53.064;8.624;2022-07-01T05:56:43;16.90;99.90
9998;DHT22;5038;53.064;8.624;2022-07-01T05:59:11;16.90;99.90
9998;DHT22;5038;53.064;8.624;2022-07-01T06:01:39;16.90;99.90
9998;DHT22;5038;53.064;8.624;2022-07-01T06:04:08;16.90;99.90
9998;DHT22;5038;53.064;8.624;2022-07-01T06:06:36;16.90;99.90
9998;DHT22;5038;53.064;8.624;2022-07-01T06:09:06;16.90;99.90
9998;DHT22;5038;53.064;8.624;2022-07-01T06:11:34;17.00;99.90
9998;DHT22;5038;53.064;8.624;2022-07-01T06:14:03;17.00;99.90
9998;DHT22;5038;53.064;8.624;2022-07-01T06:16:31;17.00;99.90
9998;DHT22;5038;53.064;8.624;2022-07-01T06:18:59;17.00;99.90
9998;DHT22;5038;53.064;8.624;2022-07-01T06:21:28;17.00;99.90
9998;DHT22;5038;53.064;8.624;2022-07-01T06:23:56;17.10;99.90
9998;DHT22;5038;53.064;8.624;2022-07-01T06:26:26;17.10;99.90
9998;DHT22;5038;53.064;8.624;2022-07-01T06:28:54;17.10;99.90
9998;DHT22;5038;53.064;8.624;2022-07-01T06:31:22;17.10;99.90
9998;DHT22;5038;53.064;8.624;2022-07-01T06:33:51;17.10;99.90
9998;DHT22;5038;53.064;8.624;2022-07-01T06:36:20;17.10;99.90
9998;DHT22;5038;53.064;8.624;2022-07-01T06:38:48;17.20;99.90
9998;DHT22;5038;53.064;8.624;2022-07-01T06:41:16;17.20;99.90
9998;DHT22;5038;53.064;8.624;2022-07-01T06:44:00;17.20;99.90
9998;DHT22;5038;53.064;8.624;2022-07-01T06:46:28;17.20;99.90
9998;DHT22;5038;53.064;8.624;2022-07-01T06:48:58;17.30;99.90
9998;DHT22;5038;53.064;8.624;2022-07-01T06:51:27;17.30;99.90
9998;DHT22;5038;53.064;8.624;2022-07-01T06:53:56;17.30;99.90
9998;DHT22;5038;53.064;8.624;2022-07-01T06:56:26;17.30;99.90
9998;DHT22;5038;53.064;8.624;2022-07-01T06:58:54;17.40;99.90
9998;DHT22;5038;53.064;8.624;2022-07-01T07:01:24;17.40;99.90
9998;DHT22;5038;53.064;8.624;2022-07-01T07:03:52;17.40;99.90
9998;DHT22;5038;53.064;8.624;2022-07-01T07:06:21;17.40;99.90
9998;DHT22;5038;53.064;8.624;2022-07-01T07:08:50;17.30;99.90
9998;DHT22;5038;53.064;8.624;2022-07-01T07:11:18;17.30;99.90
9998;DHT22;5038;53.064;8.624;2022-07-01T07:13:47;17.30;99.90
9998;DHT22;5038;53.064;8.624;2022-07-01T07:16:15;17.30;99.90
9998;DHT22;5038;53.064;8.624;2022-07-01T07:18:50;17.30;99.90
9998;DHT22;5038;53.064;8.624;2022-07-01T07:21:18;17.30;99.90
9998;DHT22;5038;53.064;8.624;2022-07-01T07:23:47;17.30;99.90
9998;DHT22;5038;53.064;8.624;2022-07-01T07:26:15;17.30;99.90
9998;DHT22;5038;53.064;8.624;2022-07-01T07:28:43;17.30;99.90
9998;DHT22;5038;53.064;8.624;2022-07-01T07:31:12;17.30;99.90
9998;DHT22;5038;53.064;8.624;2022-07-01T07:33:40;17.40;99.90
9998;DHT22;5038;53.064;8.624;2022-07-01T07:36:10;17.40;99.90
9998;DHT22;5038;53.064;8.624;2022-07-01T07:38:39;17.50;99.90
9998;DHT22;5038;53.064;8.624;2022-07-01T07:41:08;17.50;99.90
9998;DHT22;5038;53.064;8.624;2022-07-01T07:43:36;17.50;99.90
9998;DHT22;5038;53.064;8.624;2022-07-01T07:46:04;17.50;99.90
9998;DHT22;5038;53.064;8.624;2022-07-01T07:48:32;17.50;99.90
9998;DHT22;5038;53.064;8.624;2022-07-01T07:51:01;17.40;99.90
9998;DHT22;5038;53.064;8.624;2022-07-01T07:53:30;17.40;99.90
9998;DHT22;5038;53.064;8.624;2022-07-01T07:55:59;17.40;99.90
9998;DHT22;5038;53.064;8.624;2022-07-01T07:58:27;17.40;99.90
9998;DHT22;5038;53.064;8.624;2022-07-01T08:00:56;17.40;99.90
9998;DHT22;5038;53.064;8.624;2022-07-01T08:03:24;17.40;99.90
9998;DHT22;5038;53.064;8.624;2022-07-01T08:05:53;17.40;99.90
9998;DHT22;5038;53.064;8.624;2022-07-01T08:08:21;17.40;99.90
9998;DHT22;5038;53.064;8.624;2022-07-01T08:10:51;17.30;99.90
9998;DHT22;5038;53.064;8.624;2022-07-01T08:13:19;17.30;99.90
9998;DHT22;5038;53.064;8.624;2022-07-01T08:15:47;17.30;99.90
9998;DHT22;5038;53.064;8.624;2022-07-01T08:18:16;17.30;99.90
9998;DHT22;5038;53.064;8.624;2022-07-01T08:20:44;17.30;99.90
9998;DHT22;5038;53.064;8.624;2022-07-01T08:23:13;17.30;99.90
9998;DHT22;5038;53.064;8.624;2022-07-01T08:25:42;17.30;99.90
9998;DHT22;5038;53.064;8.624;2022-07-01T08:28:12;17.30;99.90
9998;DHT22;5038;53.064;8.624;2022-07-01T08:30:44;17.30;99.90
9998;DHT22;5038;53.064;8.624;2022-07-01T08:33:12;17.30;99.90
9998;DHT22;5038;53.064;8.624;2022-07-01T08:35:41;17.30;99.90
9998;DHT22;5038;53.064;8.624;2022-07-01T08:38:09;17.30;99.90
9998;DHT22;5038;53.064;8.624;2022-07-01T08:40:37;17.30;99.90
9998;DHT22;5038;53.064;8.624;2022-07-01T08:43:06;17.30;99.90
9998;DHT22;5038;53.064;8.624;2022-07-01T08:45:37;17.30;99.90
9998;DHT22;5038;53.064;8.624;2022-07-01T08:48:07;17.30;99.90
9998;DHT22;5038;53.064;8.624;2022-07-01T08:50:37;17.30;99.90
9998;DHT22;5038;53.064;8.624;2022-07-01T08:53:07;17.40;99.90
9998;DHT22;5038;53.064;8.624;2022-07-01T08:55:36;17.40;99.90
9998;DHT22;5038;53.064;8.624;2022-07-01T08:58:27;17.40;99.90
9998;DHT22;5038;53.064;8.624;2022-07-01T09:01:15;17.30;99.90
9998;DHT22;5038;53.064;8.624;2022-07-01T09:03:44;17.30;99.90
9998;DHT22;5038;53.064;8.624;2022-07-01T09:06:14;17.40;99.90
9998;DHT22;5038;53.064;8.624;2022-07-01T09:08:44;17.30;99.90
9998;DHT22;5038;53.064;8.624;2022-07-01T09:11:15;17.40;99.90
9998;DHT22;5038;53.064;8.624;2022-07-01T09:13:44;17.40;99.90
9998;DHT22;5038;53.064;8.624;2022-07-01T09:16:15;17.40;99.90
9998;DHT22;5038;53.064;8.624;2022-07-01T09:18:59;17.40;99.90
9998;DHT22;5038;53.064;8.624;2022-07-01T09:21:29;17.50;99.90
9998;DHT22;5038;53.064;8.624;2022-07-01T09:23:58;17.60;99.90
9998;DHT22;5038;53.064;8.624;2022-07-01T09:26:27;17.60;99.90
9998;DHT22;5038;53.064;8.624;2022-07-01T09:28:57;17.60;99.90
9998;DHT22;5038;53.064;8.624;2022-07-01T09:31:33;17.60;99.90
9998;DHT22;5038;53.064;8.624;2022-07-01T09:34:03;17.60;99.90
9998;DHT22;5038;53.064;8.624;2022-07-01T09:36:32;17.60;99.90
9998;DHT22;5038;53.064;8.624;2022-07-01T09:39:04;17.60;99.90
9998;DHT22;5038;53.064;8.624;2022-07-01T09:41:57;17.60;99.90
9998;DHT22;5038;53.064;8.624;2022-07-01T09:44:25;17.70;99.90
9998;DHT22;5038;53.064;8.624;2022-07-01T09:46:57;17.70;99.90
9998;DHT22;5038;53.064;8.624;2022-07-01T09:49:27;17.80;99.90
9998;DHT22;5038;53.064;8.624;2022-07-01T09:51:56;17.80;99.90
9998;DHT22;5038;53.064;8.624;2022-07-01T09:54:24;17.90;99.90
9998;DHT22;5038;53.064;8.624;2022-07-01T09:56:52;17.90;99.90
9998;DHT22;5038;53.064;8.624;2022-07-01T09:59:21;17.90;99.90
9998;DHT22;5038;53.064;8.624;2022-07-01T10:01:49;17.90;99.90
9998;DHT22;5038;53.064;8.624;2022-07-01T10:04:19;18.00;99.90
9998;DHT22;5038;53.064;8.624;2022-07-01T10:07:02;18.00;99.90
9998;DHT22;5038;53.064;8.624;2022-07-01T10:09:47;18.00;99.90
9998;DHT22;5038;53.064;8.624;2022-07-01T10:12:36;18.00;99.90
9998;DHT22;5038;53.064;8.624;2022-07-01T10:15:09;18.10;99.90
9998;DHT22;5038;53.064;8.624;2022-07-01T10:17:47;18.10;99.90
9998;DHT22;5038;53.064;8.624;2022-07-01T10:20:18;18.10;99.90
9998;DHT22;5038;53.064;8.624;2022-07-01T10:22:50;18.10;99.90
9998;DHT22;5038;53.064;8.624;2022-07-01T10:25:49;18.10;99.90
9998;DHT22;5038;53.064;8.624;2022-07-01T10:28:21;18.10;99.90
9998;DHT22;5038;53.064;8.624;2022-07-01T10:31:00;18.10;99.90
9998;DHT22;5038;53.064;8.624;2022-07-01T10:33:40;18.20;99.90
9998;DHT22;5038;53.064;8.624;2022-07-01T10:36:14;18.20;99.90
9998;DHT22;5038;53.064;8.624;2022-07-01T10:39:15;18.20;99.90
9998;DHT22;5038;53.064;8.624;2022-07-01T10:42:02;18.20;99.90
9998;DHT22;5038;53.064;8.624;2022-07-01T10:45:05;18.30;99.90
9998;DHT22;5038;53.064;8.624;2022-07-01T10:47:35;18.30;99.90
9998;DHT22;5038;53.064;8.624;2022-07-01T10:50:06;18.40;99.90
9998;DHT22;5038;53.064;8.624;2022-07-01T10:52:37;18.40;99.90
9998;DHT22;5038;53.064;8.624;2022-07-01T10:55:07;18.50;99.90
9998;DHT22;5038;53.064;8.624;2022-07-01T10:57:40;18.50;99.90
9998;DHT22;5038;53.064;8.624;2022-07-01T11:00:29;18.60;99.90
9998;DHT22;5038;53.064;8.624;2022-07-01T11:03:06;18.70;99.90
9998;DHT22;5038;53.064;8.624;2022-07-01T11:05:35;18.80;99.90
9998;DHT22;5038;53.064;8.624;2022-07-01T11:08:06;18.90;99.90
9998;DHT22;5038;53.064;8.624;2022-07-01T11:10:38;19.00;99.90
9998;DHT22;5038;53.064;8.624;2022-07-01T11:13:08;19.10;99.90
9998;DHT22;5038;53.064;8.624;2022-07-01T11:15:36;19.20;99.90
9998;DHT22;5038;53.064;8.624;2022-07-01T11:18:05;19.40;99.90
9998;DHT22;5038;53.064;8.624;2022-07-01T11:20:33;19.50;99.90
9998;DHT22;5038;53.064;8.624;2022-07-01T11:23:02;19.60;99.90
9998;DHT22;5038;53.064;8.624;2022-07-01T11:25:31;19.60;99.90
9998;DHT22;5038;53.064;8.624;2022-07-01T11:28:00;19.70;99.90
9998;DHT22;5038;53.064;8.624;2022-07-01T11:30:28;19.70;99.90
9998;DHT22;5038;53.064;8.624;2022-07-01T11:32:58;19.80;99.90
9998;DHT22;5038;53.064;8.624;2022-07-01T11:35:27;19.80;99.90
9998;DHT22;5038;53.064;8.624;2022-07-01T11:38:15;19.80;99.90
9998;DHT22;5038;53.064;8.624;2022-07-01T11:41:04;19.90;99.90
9998;DHT22;5038;53.064;8.624;2022-07-01T11:43:37;20.00;99.90
9998;DHT22;5038;53.064;8.624;2022-07-01T11:46:07;20.10;99.90
9998;DHT22;5038;53.064;8.624;2022-07-01T11:48:38;20.10;99.90
9998;DHT22;5038;53.064;8.624;2022-07-01T11:51:10;20.30;99.90
9998;DHT22;5038;53.064;8.624;2022-07-01T11:53:41;20.30;99.90
9998;DHT22;5038;53.064;8.624;2022-07-01T11:56:13;20.30;99.90
9998;DHT22;5038;53.064;8.624;2022-07-01T11:58:47;20.40;99.90
9998;DHT22;5038;53.064;8.624;2022-07-01T12:01:24;20.40;99.90
9998;DHT22;5038;53.064;8.624;2022-07-01T12:03:54;20.50;99.90
9998;DHT22;5038;53.064;8.624;2022-07-01T12:06:23;20.60;99.90
9998;DHT22;5038;53.064;8.624;2022-07-01T12:08:52;20.60;99.90
9998;DHT22;5038;53.064;8.624;2022-07-01T12:11:26;20.70;99.90
9998;DHT22;5038;53.064;8.624;2022-07-01T12:13:55;20.80;99.90
9998;DHT22;5038;53.064;8.624;2022-07-01T12:16:24;20.80;99.90
9998;DHT22;5038;53.064;8.624;2022-07-01T12:18:55;20.80;99.90
9998;DHT22;5038;53.064;8.624;2022-07-01T12:21:24;20.90;99.90
9998;DHT22;5038;53.064;8.624;2022-07-01T12:24:09;21.00;99.90
9998;DHT22;5038;53.064;8.624;2022-07-01T12:26:49;21.10;99.90
9998;DHT22;5038;53.064;8.624;2022-07-01T12:29:19;21.20;99.90
9998;DHT22;5038;53.064;8.624;2022-07-01T12:31:57;21.20;99.90
9998;DHT22;5038;53.064;8.624;2022-07-01T12:34:40;21.20;99.90
9998;DHT22;5038;53.064;8.624;2022-07-01T12:37:10;21.20;99.90
9998;DHT22;5038;53.064;8.624;2022-07-01T12:39:45;21.20;99.90
9998;DHT22;5038;53.064;8.624;2022-07-01T12:42:23;21.20;99.80
9998;DHT22;5038;53.064;8.624;2022-07-01T12:44:54;21.20;99.60
9998;DHT22;5038;53.064;8.624;2022-07-01T12:47:25;21.20;99.50
9998;DHT22;5038;53.064;8.624;2022-07-01T12:50:16;21.20;99.50
9998;DHT22;5038;53.064;8.624;2022-07-01T12:52:58;21.20;99.30
9998;DHT22;5038;53.064;8.624;2022-07-01T12:55:30;21.20;99.40
9998;DHT22;5038;53.064;8.624;2022-07-01T12:58:01;21.20;99.20
9998;DHT22;5038;53.064;8.624;2022-07-01T13:00:30;21.20;99.00
9998;DHT22;5038;53.064;8.624;2022-07-01T13:03:00;21.20;98.80
9998;DHT22;5038;53.064;8.624;2022-07-01T13:05:31;21.10;98.80
9998;DHT22;5038;53.064;8.624;2022-07-01T13:08:01;21.10;98.80
9998;DHT22;5038;53.064;8.624;2022-07-01T13:10:29;21.10;98.70
9998;DHT22;5038;53.064;8.624;2022-07-01T13:12:59;21.20;98.50
9998;DHT22;5038;53.064;8.624;2022-07-01T13:15:28;21.10;98.30
9998;DHT22;5038;53.064;8.624;2022-07-01T13:17:56;21.10;98.10
9998;DHT22;5038;53.064;8.624;2022-07-01T13:20:25;21.10;98.00
9998;DHT22;5038;53.064;8.624;2022-07-01T13:22:53;21.10;97.80
9998;DHT22;5038;53.064;8.624;2022-07-01T13:25:22;21.10;97.80
9998;DHT22;5038;53.064;8.624;2022-07-01T13:27:50;21.10;97.70
9998;DHT22;5038;53.064;8.624;2022-07-01T13:30:21;21.10;97.70
9998;DHT22;5038;53.064;8.624;2022-07-01T13:32:50;21.10;97.70
9998;DHT22;5038;53.064;8.624;2022-07-01T13:35:21;21.20;97.80
9998;DHT22;5038;53.064;8.624;2022-07-01T13:37:50;21.20;97.80
9998;DHT22;5038;53.064;8.624;2022-07-01T13:40:18;21.20;97.60
9998;DHT22;5038;53.064;8.624;2022-07-01T13:42:48;21.20;97.30
9998;DHT22;5038;53.064;8.624;2022-07-01T13:45:17;21.20;97.20
9998;DHT22;5038;53.064;8.624;2022-07-01T13:47:47;21.10;97.10
9998;DHT22;5038;53.064;8.624;2022-07-01T13:50:15;21.20;97.10
9998;DHT22;5038;53.064;8.624;2022-07-01T13:52:47;21.20;97.10
9998;DHT22;5038;53.064;8.624;2022-07-01T13:55:15;21.20;97.10
9998;DHT22;5038;53.064;8.624;2022-07-01T13:57:45;21.20;97.00
9998;DHT22;5038;53.064;8.624;2022-07-01T14:00:14;21.20;97.00
9998;DHT22;5038;53.064;8.624;2022-07-01T14:02:43;21.20;97.00
9998;DHT22;5038;53.064;8.624;2022-07-01T14:05:13;21.20;97.00
9998;DHT22;5038;53.064;8.624;2022-07-01T14:07:41;21.30;97.20
9998;DHT22;5038;53.064;8.624;2022-07-01T14:10:10;21.40;96.90
9998;DHT22;5038;53.064;8.624;2022-07-01T14:12:38;21.50;96.90
9998;DHT22;5038;53.064;8.624;2022-07-01T14:15:08;21.60;96.90
9998;DHT22;5038;53.064;8.624;2022-07-01T14:17:36;21.80;96.90
9998;DHT22;5038;53.064;8.624;2022-07-01T14:20:06;21.90;96.70
9998;DHT22;5038;53.064;8.624;2022-07-01T14:22:38;21.90;96.60
9998;DHT22;5038;53.064;8.624;2022-07-01T14:25:07;22.00;96.60
9998;DHT22;5038;53.064;8.624;2022-07-01T14:27:35;22.00;96.50
9998;DHT22;5038;53.064;8.624;2022-07-01T14:30:05;22.00;96.60
9998;DHT22;5038;53.064;8.624;2022-07-01T14:32:34;22.00;96.50
9998;DHT22;5038;53.064;8.624;2022-07-01T14:35:03;22.00;96.20
9998;DHT22;5038;53.064;8.624;2022-07-01T14:37:31;22.00;96.20
9998;DHT22;5038;53.064;8.624;2022-07-01T14:40:01;22.00;96.00
9998;DHT22;5038;53.064;8.624;2022-07-01T14:42:30;22.00;96.00
9998;DHT22;5038;53.064;8.624;2022-07-01T14:44:58;22.10;96.10
9998;DHT22;5038;53.064;8.624;2022-07-01T14:47:26;22.10;96.10
9998;DHT22;5038;53.064;8.624;2022-07-01T14:49:55;22.30;96.20
9998;DHT22;5038;53.064;8.624;2022-07-01T14:52:24;22.40;96.20
9998;DHT22;5038;53.064;8.624;2022-07-01T14:54:52;22.50;96.20
9998;DHT22;5038;53.064;8.624;2022-07-01T14:57:23;22.60;96.20
9998;DHT22;5038;53.064;8.624;2022-07-01T14:59:51;22.60;96.00
9998;DHT22;5038;53.064;8.624;2022-07-01T15:02:20;22.50;95.80
9998;DHT22;5038;53.064;8.624;2022-07-01T15:04:48;22.50;95.50
9998;DHT22;5038;53.064;8.624;2022-07-01T15:07:16;22.50;95.40
9998;DHT22;5038;53.064;8.624;2022-07-01T15:09:45;22.50;95.30
9998;DHT22;5038;53.064;8.624;2022-07-01T15:12:14;22.50;95.30
9998;DHT22;5038;53.064;8.624;2022-07-01T15:14:46;22.50;95.40
9998;DHT22;5038;53.064;8.624;2022-07-01T15:17:15;22.50;95.40
9998;DHT22;5038;53.064;8.624;2022-07-01T15:19:43;22.50;95.40
9998;DHT22;5038;53.064;8.624;2022-07-01T15:22:11;22.50;95.30
9998;DHT22;5038;53.064;8.624;2022-07-01T15:24:40;22.40;95.10
9998;DHT22;5038;53.064;8.624;2022-07-01T15:27:09;22.40;95.10
9998;DHT22;5038;53.064;8.624;2022-07-01T15:29:38;22.40;95.00
9998;DHT22;5038;53.064;8.624;2022-07-01T15:32:08;22.50;94.90
9998;DHT22;5038;53.064;8.624;2022-07-01T15:34:36;22.60;94.80
9998;DHT22;5038;53.064;8.624;2022-07-01T15:37:05;22.70;94.80
9998;DHT22;5038;53.064;8.624;2022-07-01T15:39:33;22.80;94.80
9998;DHT22;5038;53.064;8.624;2022-07-01T15:42:02;22.90;94.80
9998;DHT22;5038;53.064;8.624;2022-07-01T15:44:31;23.00;94.90
9998;DHT22;5038;53.064;8.624;2022-07-01T15:47:01;23.00;94.70
9998;DHT22;5038;53.064;8.624;2022-07-01T15:49:52;23.10;94.60
9998;DHT22;5038;53.064;8.624;2022-07-01T15:52:21;23.20;94.50
9998;DHT22;5038;53.064;8.624;2022-07-01T15:54:49;23.20;94.40
9998;DHT22;5038;53.064;8.624;2022-07-01T15:57:18;23.20;94.40
9998;DHT22;5038;53.064;8.624;2022-07-01T15:59:46;23.10;94.20
9998;DHT22;5038;53.064;8.624;2022-07-01T16:02:15;23.10;94.10
9998;DHT22;5038;53.064;8.624;2022-07-01T16:04:46;23.00;94.10
9998;DHT22;5038;53.064;8.624;2022-07-01T16:07:22;23.00;94.00
9998;DHT22;5038;53.064;8.624;2022-07-01T16:09:57;22.90;93.80
9998;DHT22;5038;53.064;8.624;2022-07-01T16:12:26;22.80;93.70
9998;DHT22;5038;53.064;8.624;2022-07-01T16:14:58;22.80;93.70
9998;DHT22;5038;53.064;8.624;2022-07-01T16:17:28;22.70;93.70
9998;DHT22;5038;53.064;8.624;2022-07-01T16:19:57;22.70;93.60
9998;DHT22;5038;53.064;8.624;2022-07-01T16:22:27;22.60;93.50
9998;DHT22;5038;53.064;8.624;2022-07-01T16:24:56;22.60;93.40